Terminal Aerodrome Forecast
Issued by NWS

Home | Current Version | Previous Version | Text Only | Print | Product List | Glossary On
Versions: 1 2 3 4 5 6 7 8 9 10 11 12 13 14 15 16 17
000
FTUS46 KSTO 201732
TAFSMF
TAF
KSMF 201732Z 2018/2118 16015G23KT P6SM -RA SCT015 OVC040
      TEMPO 2021/2101 17020G30KT 4SM RA OVC015
     FM210200 17032G42KT P6SM -RA SCT015 OVC035 PROB30 2104/2108
      -TSRA BKN020CB=

USA.gov is the U.S. government's official web portal to all federal, state and local government web resources and services.